createdAt,value
2023-05-18T00:00:02.891Z,0
2023-05-18T00:05:03.030Z,0
2023-05-18T00:10:03.109Z,0
2023-05-18T00:15:03.006Z,0.018000000000000002
2023-05-18T00:20:03.080Z,0.006
2023-05-18T00:25:02.895Z,0.002
2023-05-18T00:30:02.986Z,0.007
2023-05-18T00:35:02.883Z,0
2023-05-18T00:40:02.916Z,0
2023-05-18T00:45:02.950Z,0.005
2023-05-18T00:50:02.923Z,0
2023-05-18T00:55:02.997Z,0
2023-05-18T01:00:02.981Z,0.031
2023-05-18T01:05:02.936Z,0.02
2023-05-18T01:10:01.550Z,0.013000000000000001
2023-05-18T01:15:01.555Z,0.009000000000000001
2023-05-18T01:20:01.536Z,0.002
2023-05-18T01:25:01.380Z,0.007
2023-05-18T01:30:01.402Z,0.005
2023-05-18T01:35:01.407Z,0.001
2023-05-18T01:40:01.451Z,0
2023-05-18T01:45:01.420Z,0.019
2023-05-18T01:50:01.462Z,0.014
2023-05-18T01:55:01.412Z,0.002
2023-05-18T02:00:01.451Z,0
2023-05-18T02:05:01.402Z,0
2023-05-18T02:10:01.407Z,0
2023-05-18T02:15:01.504Z,0.001
2023-05-18T02:20:01.487Z,0.001
2023-05-18T02:25:01.522Z,0
2023-05-18T02:30:01.490Z,0.015
2023-05-18T02:35:01.471Z,0.014
2023-05-18T02:40:01.463Z,0.002
2023-05-18T02:45:01.459Z,0.007
2023-05-18T02:50:01.478Z,0.024
2023-05-18T02:55:01.496Z,0.006
2023-05-18T03:00:01.528Z,0.003
2023-05-18T03:05:01.524Z,0.037
2023-05-18T03:10:01.635Z,0.023
2023-05-18T03:15:01.681Z,28.495
2023-05-18T03:20:01.641Z,39.977000000000004
2023-05-18T03:25:01.668Z,37.737
2023-05-18T03:30:01.505Z,51.437
2023-05-18T03:35:01.499Z,53.549
2023-05-18T03:40:01.495Z,80.511
2023-05-18T03:45:02.299Z,102.06
2023-05-18T03:50:01.480Z,122.668
2023-05-18T03:55:01.606Z,140.88
2023-05-18T04:00:01.603Z,159.142
2023-05-18T04:05:01.567Z,179.27
2023-05-18T04:10:01.627Z,197.607
2023-05-18T04:15:01.528Z,214.817
2023-05-18T04:20:02.102Z,233.357
2023-05-18T04:25:01.648Z,252.297
2023-05-18T04:30:01.675Z,272.51300000000003
2023-05-18T04:35:01.571Z,287.216
2023-05-18T04:40:01.684Z,303.015
2023-05-18T04:45:01.780Z,336.034
2023-05-18T04:50:01.753Z,350.082
2023-05-18T04:55:01.756Z,365.764
2023-05-18T05:00:01.791Z,385.474
2023-05-18T05:05:01.557Z,426.742
2023-05-18T05:10:01.628Z,540.768
2023-05-18T05:15:01.561Z,685.139
2023-05-18T05:20:01.628Z,409.308
2023-05-18T05:25:02.213Z,445.705
2023-05-18T05:30:01.620Z,525.322
2023-05-18T05:35:01.664Z,703.044
2023-05-18T05:40:01.542Z,854.5210000000001
2023-05-18T05:45:01.682Z,889.264
2023-05-18T05:50:01.722Z,1228.162
2023-05-18T05:55:01.663Z,1498.3210000000001
2023-05-18T06:00:01.745Z,1356.1100000000001
2023-05-18T06:05:01.704Z,1600.6490000000001
2023-05-18T06:10:01.791Z,1599.0810000000001
2023-05-18T06:15:01.844Z,1974.3880000000001
2023-05-18T06:20:01.819Z,2347.449
2023-05-18T06:25:01.787Z,1807.147
2023-05-18T06:30:01.654Z,1594.2930000000001
2023-05-18T06:35:01.631Z,2008.6870000000001
2023-05-18T06:40:01.720Z,2726.078
2023-05-18T06:45:01.718Z,1745.778
2023-05-18T06:50:01.711Z,1486.3600000000001
2023-05-18T06:55:01.654Z,2029.4
2023-05-18T07:00:01.702Z,4781.716
2023-05-18T07:05:01.679Z,1996.5040000000001
2023-05-18T07:10:01.683Z,1653.125
2023-05-18T07:15:02.552Z,2846.184
2023-05-18T07:20:01.719Z,2161.396
2023-05-18T07:25:01.658Z,2076.176
2023-05-18T07:30:01.970Z,4722.063
2023-05-18T07:35:01.740Z,3474.14
2023-05-18T07:40:01.708Z,2069.684
2023-05-18T07:45:01.687Z,2126.598
2023-05-18T07:50:01.738Z,4365.258
2023-05-18T07:55:01.731Z,6213.709
2023-05-18T08:00:01.833Z,2624.457
2023-05-18T08:05:01.786Z,3956.106
2023-05-18T08:10:01.897Z,7440.027
2023-05-18T08:15:01.916Z,3771.643
2023-05-18T08:20:02.037Z,4230.715
2023-05-18T08:25:01.921Z,2867.263
2023-05-18T08:30:01.791Z,6507.8060000000005
2023-05-18T08:35:01.744Z,7135.326
2023-05-18T08:40:01.932Z,6955.313
2023-05-18T08:45:01.752Z,2854.581
2023-05-18T08:50:01.734Z,4155.79
2023-05-18T08:55:01.781Z,5395.679
2023-05-18T09:00:01.839Z,6950.433
2023-05-18T09:05:01.829Z,7335.72
2023-05-18T09:10:01.855Z,7582.081
2023-05-18T09:15:01.825Z,6327.519
2023-05-18T09:20:01.811Z,3936.248
2023-05-18T09:25:01.851Z,7743.372
2023-05-18T09:30:01.884Z,4566.604
2023-05-18T09:35:01.999Z,5810.446
2023-05-18T09:40:01.982Z,7186.463
2023-05-18T09:45:02.049Z,8021.584
2023-05-18T09:50:01.792Z,7774.217000000001
2023-05-18T09:55:01.886Z,7799.488
2023-05-18T10:00:02.011Z,7949.570000000001
2023-05-18T10:05:01.911Z,6629.377
2023-05-18T10:10:01.885Z,7916.81
2023-05-18T10:15:01.872Z,7769.404
2023-05-18T10:20:01.825Z,4559.044
2023-05-18T10:25:01.849Z,8205.525
2023-05-18T10:30:01.911Z,8121.579
2023-05-18T10:35:01.875Z,8107.2210000000005
2023-05-18T10:40:01.946Z,7997.3060000000005
2023-05-18T10:45:02.103Z,8175.319
2023-05-18T10:50:01.991Z,8163.9890000000005
2023-05-18T10:55:01.891Z,8267.039
2023-05-18T11:00:02.056Z,6833.863
2023-05-18T11:05:01.909Z,8229.484
2023-05-18T11:10:01.964Z,8147.417
2023-05-18T11:15:01.998Z,8065.809
2023-05-18T11:20:02.000Z,8106.527
2023-05-18T11:25:01.913Z,8082.736
2023-05-18T11:30:14.441Z,8071.195000000001
2023-05-18T11:35:02.115Z,8129.002
2023-05-18T11:40:05.712Z,8166.656
2023-05-18T11:45:01.920Z,8125.229
2023-05-18T11:50:01.903Z,8103.2660000000005
2023-05-18T11:55:01.954Z,8078.807
2023-05-18T12:00:01.956Z,7689.834
2023-05-18T12:05:01.890Z,8032.419
2023-05-18T12:40:02.017Z,7824.156
2023-05-18T12:45:02.264Z,7829.069
2023-05-18T12:50:01.991Z,7783.24
2023-05-18T12:55:01.973Z,7754.968
2023-05-18T13:00:02.069Z,7654.58
2023-05-18T13:05:02.024Z,7652.158
2023-05-18T13:10:02.191Z,7583.78
2023-05-18T13:15:02.244Z,7529.159000000001
2023-05-18T13:20:01.978Z,7489.494000000001
2023-05-18T13:25:02.109Z,7408.9490000000005
2023-05-18T13:30:01.949Z,7321.533
2023-05-18T13:35:02.041Z,7225.442
2023-05-18T13:40:02.140Z,7145.2570000000005
2023-05-18T13:45:02.014Z,7060.6410000000005
2023-05-18T13:50:01.998Z,6952.05
2023-05-18T13:55:02.109Z,6867.792
2023-05-18T14:00:02.167Z,6844.961
2023-05-18T14:05:02.240Z,6629.0650000000005
2023-05-18T14:10:02.072Z,6378.573
2023-05-18T14:15:02.083Z,6512.506
2023-05-18T14:20:02.124Z,6396.581
2023-05-18T14:25:02.169Z,6321.279
2023-05-18T14:30:02.136Z,6218.689
2023-05-18T14:35:02.016Z,6107.395
2023-05-18T14:40:02.091Z,5965.26
2023-05-18T14:45:02.165Z,6010.229
2023-05-18T14:50:02.265Z,5856.29
2023-05-18T14:55:02.223Z,5757.865
2023-05-18T15:00:02.102Z,5625.147
2023-05-18T15:05:02.158Z,5488.992
2023-05-18T15:10:02.474Z,5285.869
2023-05-18T15:15:02.135Z,5089.963
2023-05-18T15:20:02.260Z,4946.947
2023-05-18T15:25:02.119Z,4924.953
2023-05-18T15:30:02.202Z,4806.754
2023-05-18T15:35:02.190Z,4692.292
2023-05-18T15:40:02.534Z,4525.542
2023-05-18T15:45:02.246Z,4358.265
2023-05-18T15:50:02.360Z,4192.374
2023-05-18T15:55:02.171Z,4068.782
2023-05-18T16:00:02.154Z,3847.937
2023-05-18T16:05:02.146Z,3706.159
2023-05-18T16:10:04.131Z,3348.014
2023-05-18T16:15:02.302Z,2823.192
2023-05-18T16:20:03.925Z,3172.279
2023-05-18T16:25:02.258Z,3105.384
2023-05-18T16:30:02.311Z,2928.188
2023-05-18T16:35:02.221Z,2741.888
2023-05-18T16:40:09.430Z,2558.744
2023-05-18T16:45:02.348Z,2406.752
2023-05-18T16:50:02.411Z,2252.748
2023-05-18T16:55:02.383Z,1956.068
2023-05-18T17:00:02.244Z,1649.685
2023-05-18T17:05:02.211Z,1733.126
2023-05-18T17:10:07.295Z,1593.811
2023-05-18T17:15:02.316Z,1420.672
2023-05-18T17:20:02.447Z,1249.134
2023-05-18T17:25:02.281Z,1046.323
2023-05-18T17:30:02.219Z,822.152
2023-05-18T17:35:02.309Z,833.152
2023-05-18T17:40:07.788Z,714.093
2023-05-18T17:45:02.306Z,591.595
2023-05-18T17:50:02.463Z,504.293
2023-05-18T17:55:02.387Z,431.217
2023-05-18T18:00:02.394Z,370.796
2023-05-18T18:05:02.452Z,316.767
2023-05-18T18:10:08.451Z,271.32800000000003
2023-05-18T18:15:02.579Z,235.967
2023-05-18T18:20:02.324Z,210.052
2023-05-18T18:25:02.284Z,187.98
2023-05-18T18:30:02.303Z,164.562
2023-05-18T18:35:02.285Z,138.638
2023-05-18T18:40:11.650Z,110.229
2023-05-18T18:45:02.320Z,83.609
2023-05-18T18:50:02.313Z,57.875
2023-05-18T18:55:02.321Z,32.063
2023-05-18T19:00:02.318Z,40.139
2023-05-18T19:05:02.426Z,30.556
2023-05-18T19:10:13.106Z,0.127
2023-05-18T19:15:02.394Z,0.132
2023-05-18T19:20:02.406Z,0.135
2023-05-18T19:25:02.363Z,0.181
2023-05-18T19:30:02.821Z,0.183
2023-05-18T19:35:02.421Z,0.183
2023-05-18T19:40:09.607Z,0.129
2023-05-18T19:45:02.514Z,0.111
2023-05-18T19:50:02.523Z,0.112
2023-05-18T19:55:02.722Z,0.112
2023-05-18T20:00:02.571Z,0.11900000000000001
2023-05-18T20:05:02.549Z,0.113
2023-05-18T20:10:07.702Z,0.145
2023-05-18T20:15:02.438Z,0.164
2023-05-18T20:20:02.511Z,0.177
2023-05-18T20:25:02.356Z,0.156
2023-05-18T20:30:02.453Z,0.129
2023-05-18T20:35:02.474Z,0.128
2023-05-18T20:40:09.413Z,0.129
2023-05-18T20:45:02.462Z,0.13
2023-05-18T20:50:02.403Z,0.13
2023-05-18T20:55:02.453Z,0.14300000000000002
2023-05-18T21:00:02.432Z,0.18
2023-05-18T21:05:02.464Z,0.17400000000000002
2023-05-18T21:10:11.601Z,0.157
2023-05-18T21:15:02.496Z,0.12
2023-05-18T21:20:02.550Z,0.11800000000000001
2023-05-18T21:25:02.730Z,0.121
2023-05-18T21:30:02.500Z,0.132
2023-05-18T21:35:02.471Z,0.13
2023-05-18T21:40:09.589Z,0.092
2023-05-18T21:45:02.580Z,0
2023-05-18T21:50:02.579Z,0
2023-05-18T21:55:02.617Z,0
2023-05-18T22:00:02.690Z,0
2023-05-18T22:05:02.620Z,0.123
2023-05-18T22:10:09.266Z,0.11800000000000001
2023-05-18T22:15:02.768Z,0.113
2023-05-18T22:20:02.735Z,0.108
2023-05-18T22:25:02.477Z,0.112
2023-05-18T22:30:02.697Z,0.14
2023-05-18T22:35:02.515Z,0.164
2023-05-18T22:40:13.806Z,0.165
2023-05-18T22:45:02.587Z,0.14
2023-05-18T22:50:02.472Z,0.131
2023-05-18T22:55:02.537Z,0.132
2023-05-18T23:00:02.554Z,0.131
2023-05-18T23:05:02.494Z,0.131
2023-05-18T23:10:13.935Z,0.131
2023-05-18T23:15:02.608Z,0.139
2023-05-18T23:20:02.618Z,0.176
2023-05-18T23:25:02.541Z,0.178
2023-05-18T23:30:02.585Z,0.171
2023-05-18T23:35:02.552Z,0.13
2023-05-18T23:40:08.748Z,0.11800000000000001
2023-05-18T23:45:02.609Z,0.115
2023-05-18T23:50:02.542Z,0.099
2023-05-18T23:55:02.552Z,0
